createdAt,value
2018-09-01T00:00:33.943Z,13.80
2018-09-01T00:03:03.415Z,13.70
2018-09-01T00:05:32.368Z,13.50
2018-09-01T00:08:03.051Z,13.50
2018-09-01T00:10:33.347Z,13.40
2018-09-01T00:13:01.943Z,13.40
2018-09-01T00:15:31.070Z,13.40
2018-09-01T00:18:00.231Z,13.30
2018-09-01T00:20:32.713Z,13.30
2018-09-01T00:23:05.780Z,13.30
2018-09-01T00:25:36.297Z,13.30
2018-09-01T00:28:08.898Z,13.20
2018-09-01T00:30:36.976Z,13.20
2018-09-01T00:33:06.201Z,13.10
2018-09-01T00:35:35.250Z,13.10
2018-09-01T00:38:11.442Z,13.10
2018-09-01T00:40:41.435Z,13.10
2018-09-01T00:43:10.382Z,13.10
2018-09-01T00:45:42.879Z,13.10
2018-09-01T00:48:14.281Z,13.00
2018-09-01T00:50:43.581Z,13.00
2018-09-01T00:53:14.150Z,13.00
2018-09-01T00:55:44.722Z,12.90
2018-09-01T00:58:13.116Z,12.80
2018-09-01T01:00:41.494Z,12.80
2018-09-01T01:03:12.017Z,12.80
2018-09-01T01:05:40.279Z,12.60
2018-09-01T01:08:17.256Z,12.50
2018-09-01T01:10:45.311Z,12.40
2018-09-01T01:13:14.088Z,12.30
2018-09-01T01:15:43.258Z,12.20
2018-09-01T01:18:13.193Z,12.20
2018-09-01T01:20:45.477Z,12.30
2018-09-01T01:23:13.635Z,12.20
2018-09-01T01:25:43.782Z,12.20
2018-09-01T01:28:15.100Z,12.10
2018-09-01T01:30:52.829Z,12.10
2018-09-01T01:33:21.551Z,12.00
2018-09-01T01:35:52.581Z,12.00
2018-09-01T01:38:22.188Z,12.10
2018-09-01T01:40:51.478Z,12.00
2018-09-01T01:43:21.711Z,11.80
2018-09-01T01:45:51.062Z,11.80
2018-09-01T01:48:19.326Z,11.80
2018-09-01T01:50:47.993Z,11.80
2018-09-01T01:53:19.244Z,11.80
2018-09-01T01:55:48.950Z,11.70
2018-09-01T01:58:17.735Z,11.70
2018-09-01T02:00:46.413Z,11.60
2018-09-01T02:03:14.926Z,11.60
2018-09-01T02:05:43.644Z,11.50
2018-09-01T02:08:12.844Z,11.50
2018-09-01T02:10:41.090Z,11.50
2018-09-01T02:13:11.370Z,11.50
2018-09-01T02:15:42.962Z,11.50
2018-09-01T02:18:11.823Z,11.50
2018-09-01T02:20:41.072Z,11.50
2018-09-01T02:23:09.193Z,11.50
2018-09-01T02:25:38.747Z,11.30
2018-09-01T02:28:07.007Z,11.30
2018-09-01T02:30:37.062Z,11.10
2018-09-01T02:33:09.700Z,11.10
2018-09-01T02:35:38.998Z,11.10
2018-09-01T02:38:07.798Z,11.00
2018-09-01T02:40:37.638Z,11.00
2018-09-01T02:43:06.239Z,10.90
2018-09-01T02:45:34.906Z,10.90
2018-09-01T02:48:05.229Z,10.90
2018-09-01T02:50:39.643Z,11.00
2018-09-01T02:53:09.682Z,10.90
2018-09-01T02:55:38.716Z,10.80
2018-09-01T02:58:06.932Z,10.80
2018-09-01T03:00:37.481Z,10.80
2018-09-01T03:03:05.678Z,10.80
2018-09-01T03:05:35.231Z,10.80
2018-09-01T03:08:03.873Z,10.70
2018-09-01T03:10:32.928Z,10.60
2018-09-01T03:13:02.284Z,10.60
2018-09-01T03:15:32.151Z,10.50
2018-09-01T03:18:00.375Z,10.50
2018-09-01T03:20:28.601Z,10.20
2018-09-01T03:22:58.143Z,10.10
2018-09-01T03:25:29.339Z,10.00
2018-09-01T03:28:03.637Z,10.00
2018-09-01T03:30:31.712Z,10.00
2018-09-01T03:33:01.826Z,10.00
2018-09-01T03:35:30.934Z,10.00
2018-09-01T03:37:59.155Z,10.10
2018-09-01T03:40:27.840Z,10.00
2018-09-01T03:42:57.655Z,9.90
2018-09-01T03:45:29.769Z,9.90
2018-09-01T03:48:00.047Z,9.90
2018-09-01T03:50:28.631Z,9.90
2018-09-01T03:53:01.131Z,10.00
2018-09-01T03:55:31.580Z,9.90
2018-09-01T03:58:01.366Z,9.90
2018-09-01T04:00:31.298Z,9.90
2018-09-01T04:02:59.880Z,10.00
2018-09-01T04:05:29.950Z,9.90
2018-09-01T04:07:59.327Z,9.80
2018-09-01T04:10:28.155Z,9.70
2018-09-01T04:12:56.280Z,9.60
2018-09-01T04:15:24.614Z,9.50
2018-09-01T04:17:55.136Z,9.60
2018-09-01T04:20:24.554Z,9.60
2018-09-01T04:22:52.939Z,9.60
2018-09-01T04:25:25.819Z,9.50
2018-09-01T04:27:54.644Z,9.60
2018-09-01T04:30:28.362Z,9.60
2018-09-01T04:32:59.615Z,9.60
2018-09-01T04:35:27.925Z,9.50
2018-09-01T04:37:57.796Z,9.50
2018-09-01T04:40:26.939Z,9.50
2018-09-01T04:42:56.451Z,9.60
2018-09-01T04:45:24.532Z,9.40
2018-09-01T04:47:54.246Z,9.20
2018-09-01T04:50:22.343Z,9.10
2018-09-01T04:52:53.165Z,8.90
2018-09-01T04:55:21.332Z,9.00
2018-09-01T04:57:50.344Z,9.00
2018-09-01T05:00:22.230Z,9.00
2018-09-01T05:02:55.041Z,9.00
2018-09-01T05:05:23.234Z,9.10
2018-09-01T05:07:51.429Z,9.10
2018-09-01T05:10:24.668Z,9.20
2018-09-01T05:12:53.396Z,9.20
2018-09-01T05:15:21.784Z,9.20
2018-09-01T05:17:52.836Z,9.30
2018-09-01T05:20:20.873Z,9.40
2018-09-01T05:22:50.202Z,9.50
2018-09-01T05:25:21.039Z,9.50
2018-09-01T05:27:50.696Z,9.50
2018-09-01T05:30:20.269Z,9.40
2018-09-01T05:32:49.356Z,9.40
2018-09-01T05:35:20.303Z,9.30
2018-09-01T05:37:49.508Z,9.20
2018-09-01T05:40:17.562Z,9.30
2018-09-01T05:42:45.648Z,9.30
2018-09-01T05:45:15.975Z,9.50
2018-09-01T05:47:45.605Z,9.60
2018-09-01T05:50:16.243Z,9.70
2018-09-01T05:52:45.729Z,9.70
2018-09-01T05:55:17.285Z,9.70
2018-09-01T05:58:10.068Z,9.70
2018-09-01T06:00:42.826Z,9.70
2018-09-01T06:03:11.763Z,9.70
2018-09-01T06:06:14.549Z,9.80
2018-09-01T06:08:43.674Z,9.70
2018-09-01T06:17:50.949Z,9.70
2018-09-01T06:20:19.648Z,10.00
2018-09-01T06:22:49.876Z,10.10
2018-09-01T06:25:18.575Z,10.30
2018-09-01T06:27:49.395Z,10.30
2018-09-01T06:30:25.553Z,10.40
2018-09-01T06:32:54.631Z,10.30
2018-09-01T06:35:26.407Z,10.40
2018-09-01T06:39:02.761Z,10.40
2018-09-01T06:41:32.086Z,10.40
2018-09-01T06:46:38.513Z,10.70
2018-09-01T06:49:11.245Z,10.80
2018-09-01T06:51:41.519Z,10.90
2018-09-01T06:54:13.628Z,10.80
2018-09-01T06:57:33.220Z,10.60
2018-09-01T07:00:03.457Z,10.80
2018-09-01T07:02:38.379Z,11.00
2018-09-01T07:05:23.565Z,11.10
2018-09-01T07:07:54.004Z,11.20
2018-09-01T07:10:23.900Z,11.30
2018-09-01T07:12:54.828Z,12.40
2018-09-01T07:15:26.073Z,14.20
2018-09-01T07:17:54.780Z,15.00
2018-09-01T07:24:06.743Z,16.40
2018-09-01T07:26:35.772Z,15.70
2018-09-01T07:29:08.142Z,17.40
2018-09-01T07:31:39.762Z,15.70
2018-09-01T07:34:13.441Z,16.20
2018-09-01T07:36:42.652Z,17.00
2018-09-01T07:39:12.432Z,17.30
2018-09-01T07:41:42.667Z,17.90
2018-09-01T07:44:11.695Z,18.40
2018-09-01T07:46:43.325Z,18.10
2018-09-01T07:49:15.409Z,18.90
2018-09-01T07:52:11.825Z,19.80
2018-09-01T07:55:15.563Z,19.00
2018-09-01T07:57:58.772Z,20.20
2018-09-01T08:00:40.013Z,20.70
2018-09-01T08:03:17.090Z,21.00
2018-09-01T08:05:56.542Z,20.20
2018-09-01T08:08:26.662Z,21.00
2018-09-01T08:10:55.983Z,21.30
2018-09-01T08:13:33.071Z,20.60
2018-09-01T08:16:11.463Z,20.30
2018-09-01T08:18:39.662Z,21.30
2018-09-01T08:21:10.557Z,21.30
2018-09-01T08:23:40.236Z,20.70
2018-09-01T08:26:10.333Z,19.90
2018-09-01T08:29:11.435Z,19.80
2018-09-01T08:31:59.501Z,21.30
2018-09-01T08:34:28.433Z,21.90
2018-09-01T08:37:00.579Z,22.80
2018-09-01T08:39:30.946Z,23.30
2018-09-01T08:42:01.732Z,22.10
2018-09-01T08:44:31.516Z,22.20
2018-09-01T08:47:01.554Z,22.20
2018-09-01T08:49:29.964Z,21.90
2018-09-01T08:51:59.543Z,22.90
2018-09-01T08:54:51.136Z,22.90
2018-09-01T08:57:20.665Z,24.20
2018-09-01T08:59:50.754Z,24.00
2018-09-01T09:02:55.962Z,22.60
2018-09-01T09:05:37.821Z,23.20
2018-09-01T09:08:07.401Z,23.70
2018-09-01T09:10:36.237Z,23.60
2018-09-01T09:13:36.681Z,22.50
2018-09-01T09:16:07.704Z,22.40
2018-09-01T09:18:38.867Z,20.70
2018-09-01T09:21:07.623Z,19.90
2018-09-01T09:23:45.551Z,19.70
2018-09-01T09:26:15.686Z,19.60
2018-09-01T09:29:15.035Z,19.50
2018-09-01T09:31:45.770Z,19.20
2018-09-01T09:34:15.368Z,19.20
2018-09-01T09:36:50.384Z,19.20
2018-09-01T09:39:20.052Z,18.20
2018-09-01T09:41:49.575Z,18.30
2018-09-01T09:44:26.084Z,18.10
2018-09-01T09:47:22.517Z,18.20
2018-09-01T09:49:52.652Z,17.80
2018-09-01T09:52:21.073Z,18.30
2018-09-01T09:55:21.141Z,18.50
2018-09-01T09:58:13.379Z,18.70
2018-09-01T10:01:00.393Z,19.00
2018-09-01T10:04:13.802Z,19.00
2018-09-01T10:07:12.244Z,19.00
2018-09-01T10:09:43.007Z,18.40
2018-09-01T10:12:14.516Z,19.10
2018-09-01T10:14:44.841Z,18.60
2018-09-01T10:17:15.609Z,18.90
2018-09-01T10:19:49.947Z,18.80
2018-09-01T10:25:50.488Z,19.30
2018-09-01T10:28:57.566Z,18.50
2018-09-01T10:31:31.024Z,18.80
2018-09-01T10:34:06.962Z,18.60
2018-09-01T10:36:40.788Z,19.10
2018-09-01T10:39:30.262Z,19.10
2018-09-01T10:42:02.177Z,19.30
2018-09-01T10:44:37.510Z,19.10
2018-09-01T10:47:07.633Z,19.40
2018-09-01T10:49:47.468Z,19.40
2018-09-01T10:52:30.136Z,19.70
2018-09-01T10:55:14.733Z,19.60
2018-09-01T11:01:18.318Z,19.00
2018-09-01T11:03:47.726Z,19.00
2018-09-01T11:06:19.412Z,18.90
2018-09-01T11:08:48.903Z,19.20
2018-09-01T11:11:37.917Z,19.50
2018-09-01T11:14:16.354Z,19.30
2018-09-01T11:16:45.372Z,19.30
2018-09-01T11:19:24.933Z,19.30
2018-09-01T11:21:55.291Z,19.30
2018-09-01T11:24:36.285Z,19.50
2018-09-01T11:29:48.359Z,19.60
2018-09-01T11:32:18.241Z,19.30
2018-09-01T11:35:18.041Z,19.20
2018-09-01T11:38:02.491Z,19.30
2018-09-01T11:40:34.359Z,19.10
2018-09-01T11:43:05.562Z,19.20
2018-09-01T11:45:34.894Z,19.50
2018-09-01T11:48:35.481Z,19.60
2018-09-01T11:51:28.343Z,19.70
2018-09-01T11:54:16.044Z,20.50
2018-09-01T11:57:21.675Z,20.50
2018-09-01T12:00:17.555Z,20.60
2018-09-01T12:02:55.376Z,20.30
2018-09-01T12:05:32.092Z,19.80
2018-09-01T12:08:37.340Z,19.90
2018-09-01T12:11:17.971Z,20.30
2018-09-01T12:13:47.103Z,20.80
2018-09-01T12:16:16.828Z,20.10
2018-09-01T12:18:51.064Z,19.40
2018-09-01T12:21:20.306Z,19.40
2018-09-01T12:23:49.590Z,19.50
2018-09-01T12:26:26.880Z,19.80
2018-09-01T12:29:04.288Z,20.00
2018-09-01T12:31:35.946Z,20.00
2018-09-01T12:34:10.409Z,20.00
2018-09-01T12:36:40.275Z,19.60
2018-09-01T12:39:10.045Z,20.30
2018-09-01T12:41:39.885Z,20.30
2018-09-01T12:44:13.883Z,20.40
2018-09-01T12:46:45.303Z,20.40
2018-09-01T12:49:14.064Z,20.50
2018-09-01T12:51:43.895Z,20.70
2018-09-01T12:54:18.229Z,20.70
2018-09-01T12:57:13.798Z,20.70
2018-09-01T12:59:58.527Z,20.60
2018-09-01T13:02:28.673Z,21.00
2018-09-01T13:04:56.750Z,20.80
2018-09-01T13:07:28.286Z,20.80
2018-09-01T13:10:20.636Z,20.90
2018-09-01T13:13:01.892Z,20.50
2018-09-01T13:15:31.332Z,20.80
2018-09-01T13:17:59.904Z,20.70
2018-09-01T13:20:47.976Z,20.80
2018-09-01T13:23:17.397Z,20.30
2018-09-01T13:25:45.469Z,20.50
2018-09-01T13:28:13.559Z,20.90
2018-09-01T13:30:44.394Z,20.70
2018-09-01T13:33:15.385Z,20.50
2018-09-01T13:36:03.478Z,20.50
2018-09-01T13:38:48.208Z,20.70
2018-09-01T13:41:30.070Z,20.60
2018-09-01T13:44:06.906Z,20.60
2018-09-01T13:46:50.058Z,20.10
2018-09-01T13:49:41.377Z,20.80
2018-09-01T13:52:13.067Z,20.90
2018-09-01T13:54:42.837Z,20.70
2018-09-01T13:57:21.603Z,20.50
2018-09-01T14:00:04.568Z,20.40
2018-09-01T14:02:54.608Z,20.70
2018-09-01T14:05:30.648Z,21.20
2018-09-01T14:07:58.950Z,21.40
2018-09-01T14:10:31.764Z,21.40
2018-09-01T14:13:00.950Z,21.30
2018-09-01T14:15:33.836Z,21.50
2018-09-01T14:21:00.339Z,21.50
2018-09-01T14:24:32.075Z,21.30
2018-09-01T14:27:28.603Z,21.20
2018-09-01T14:30:24.992Z,21.30
2018-09-01T14:32:55.524Z,21.30
2018-09-01T14:35:33.210Z,21.30
2018-09-01T14:38:03.762Z,21.30
2018-09-01T14:40:57.126Z,21.30
2018-09-01T14:43:26.758Z,21.30
2018-09-01T14:46:08.522Z,21.30
2018-09-01T14:48:46.629Z,21.30
2018-09-01T14:51:20.327Z,20.90
2018-09-01T14:53:49.664Z,21.30
2018-09-01T14:56:18.085Z,21.40
2018-09-01T14:58:46.308Z,21.00
2018-09-01T15:01:16.847Z,20.90
2018-09-01T15:03:45.602Z,21.20
2018-09-01T15:06:16.599Z,20.90
2018-09-01T15:08:48.588Z,21.10
2018-09-01T15:11:18.807Z,21.10
2018-09-01T15:14:00.836Z,21.20
2018-09-01T15:16:31.222Z,21.30
2018-09-01T15:19:32.164Z,21.30
2018-09-01T15:22:20.130Z,21.30
2018-09-01T15:24:52.334Z,21.40
2018-09-01T15:27:20.724Z,21.20
2018-09-01T15:29:53.931Z,21.00
2018-09-01T15:32:30.772Z,20.90
2018-09-01T15:35:02.715Z,21.00
2018-09-01T15:37:36.956Z,21.10
2018-09-01T15:40:14.431Z,20.80
2018-09-01T15:42:52.225Z,21.10
2018-09-01T15:45:27.334Z,21.00
2018-09-01T15:47:58.813Z,21.00
2018-09-01T15:50:40.308Z,21.00
2018-09-01T15:53:11.740Z,21.10
2018-09-01T15:55:41.821Z,21.00
2018-09-01T15:58:11.515Z,20.90
2018-09-01T16:00:45.774Z,20.90
2018-09-01T16:03:25.735Z,21.00
2018-09-01T16:05:53.915Z,20.90
2018-09-01T16:08:42.427Z,20.80
2018-09-01T16:11:16.939Z,20.70
2018-09-01T16:13:49.354Z,20.60
2018-09-01T16:16:24.227Z,20.80
2018-09-01T16:19:04.447Z,20.80
2018-09-01T16:21:50.471Z,20.90
2018-09-01T16:24:23.029Z,20.70
2018-09-01T16:26:53.334Z,20.70
2018-09-01T16:29:26.629Z,20.70
2018-09-01T16:31:57.281Z,20.70
2018-09-01T16:34:31.216Z,20.70
2018-09-01T16:37:03.567Z,20.60
2018-09-01T16:39:40.595Z,20.60
2018-09-01T16:42:11.267Z,20.50
2018-09-01T16:47:59.773Z,20.40
2018-09-01T16:50:32.194Z,20.30
2018-09-01T16:53:37.499Z,20.20
2018-09-01T16:56:37.471Z,20.20
2018-09-01T16:59:13.553Z,20.20
2018-09-01T17:01:46.457Z,20.10
2018-09-01T17:04:47.508Z,20.10
2018-09-01T17:07:40.882Z,20.10
2018-09-01T17:10:33.231Z,20.00
2018-09-01T17:13:15.433Z,19.90
2018-09-01T17:16:00.268Z,19.80
2018-09-01T17:18:50.067Z,19.70
2018-09-01T17:21:20.262Z,19.70
2018-09-01T17:23:49.321Z,19.60
2018-09-01T17:30:06.584Z,19.60
2018-09-01T17:32:37.860Z,19.50
2018-09-01T17:35:07.858Z,19.60
2018-09-01T17:37:40.680Z,19.60
2018-09-01T17:40:15.525Z,19.60
2018-09-01T17:43:04.149Z,19.50
2018-09-01T17:46:23.117Z,19.50
2018-09-01T17:48:53.240Z,19.40
2018-09-01T17:51:35.198Z,19.30
2018-09-01T17:54:04.783Z,19.20
2018-09-01T17:56:35.793Z,19.10
2018-09-01T17:59:06.151Z,19.10
2018-09-01T18:01:37.492Z,19.00
2018-09-01T18:04:23.834Z,18.90
2018-09-01T18:06:55.215Z,19.00
2018-09-01T18:09:24.967Z,18.90
2018-09-01T18:12:03.647Z,18.80
2018-09-01T18:14:58.190Z,18.70
2018-09-01T18:17:35.619Z,18.60
2018-09-01T18:20:09.413Z,18.50
2018-09-01T18:22:39.187Z,18.50
2018-09-01T18:25:14.432Z,18.40
2018-09-01T18:27:52.962Z,18.30
2018-09-01T18:30:24.486Z,18.30
2018-09-01T18:33:21.346Z,18.20
2018-09-01T18:35:53.504Z,18.10
2018-09-01T18:41:47.498Z,17.90
2018-09-01T18:44:21.939Z,17.80
2018-09-01T18:46:53.043Z,17.80
2018-09-01T18:49:24.432Z,17.70
2018-09-01T18:51:54.942Z,17.60
2018-09-01T18:54:25.536Z,17.60
2018-09-01T18:56:58.419Z,17.50
2018-09-01T18:59:31.159Z,17.50
2018-09-01T19:02:21.209Z,17.40
2018-09-01T19:04:55.642Z,17.30
2018-09-01T19:07:31.721Z,17.30
2018-09-01T19:10:35.097Z,17.20
2018-09-01T19:13:12.785Z,17.20
2018-09-01T19:15:45.116Z,17.10
2018-09-01T19:18:15.604Z,17.10
2018-09-01T19:21:08.823Z,17.10
2018-09-01T19:23:37.457Z,17.10
2018-09-01T19:26:15.103Z,17.00
2018-09-01T19:28:49.543Z,17.00
2018-09-01T19:31:21.900Z,16.90
2018-09-01T19:33:56.238Z,16.90
2018-09-01T19:39:38.390Z,16.90
2018-09-01T19:42:07.349Z,16.80
2018-09-01T19:44:38.015Z,16.70
2018-09-01T19:47:16.948Z,16.70
2018-09-01T19:49:46.186Z,16.70
2018-09-01T19:52:20.546Z,16.60
2018-09-01T19:54:53.872Z,16.60
2018-09-01T19:58:08.620Z,16.50
2018-09-01T20:00:41.007Z,16.50
2018-09-01T20:03:21.573Z,16.40
2018-09-01T20:09:24.175Z,16.40
2018-09-01T20:11:57.295Z,16.40
2018-09-01T20:14:40.541Z,16.40
2018-09-01T20:17:26.758Z,16.30
2018-09-01T20:23:10.251Z,16.20
2018-09-01T20:26:20.526Z,16.20
2018-09-01T20:29:02.715Z,16.10
2018-09-01T20:31:50.795Z,16.10
2018-09-01T20:34:32.163Z,16.20
2018-09-01T20:40:42.815Z,16.10
2018-09-01T20:46:33.675Z,15.70
2018-09-01T20:49:39.590Z,15.40
2018-09-01T20:55:14.604Z,15.10
2018-09-01T20:57:43.465Z,15.10
2018-09-01T21:00:19.499Z,15.10
2018-09-01T21:02:49.094Z,15.10
2018-09-01T21:05:25.007Z,15.10
2018-09-01T21:08:35.742Z,15.00
2018-09-01T21:11:11.607Z,14.90
2018-09-01T21:13:52.325Z,15.00
2018-09-01T21:16:23.567Z,15.00
2018-09-01T21:18:55.533Z,15.00
2018-09-01T21:21:37.555Z,14.90
2018-09-01T21:24:08.546Z,14.80
2018-09-01T21:26:48.142Z,14.70
2018-09-01T21:31:56.729Z,14.60
2018-09-01T21:34:28.114Z,14.50
2018-09-01T21:36:59.658Z,14.40
2018-09-01T21:39:31.002Z,14.30
2018-09-01T21:42:02.642Z,13.90
2018-09-01T21:44:33.439Z,13.80
2018-09-01T21:47:06.779Z,13.40
2018-09-01T21:49:37.709Z,13.50
2018-09-01T21:52:06.738Z,13.60
2018-09-01T21:55:09.213Z,13.60
2018-09-01T21:57:59.100Z,13.70
2018-09-01T22:00:27.811Z,13.60
2018-09-01T22:02:55.923Z,13.70
2018-09-01T22:05:28.583Z,13.80
2018-09-01T22:08:00.853Z,13.80
2018-09-01T22:10:30.895Z,13.80
2018-09-01T22:13:00.915Z,13.80
2018-09-01T22:15:46.215Z,13.80
2018-09-01T22:18:27.468Z,13.80
2018-09-01T22:20:59.212Z,13.80
2018-09-01T22:23:29.131Z,13.70
2018-09-01T22:26:00.345Z,13.70
2018-09-01T22:28:32.360Z,13.70
2018-09-01T22:31:05.114Z,13.50
2018-09-01T22:33:33.574Z,13.50
2018-09-01T22:36:08.228Z,13.40
2018-09-01T22:38:42.382Z,13.30
2018-09-01T22:41:13.010Z,13.40
2018-09-01T22:43:43.751Z,13.30
2018-09-01T22:46:14.431Z,13.20
2018-09-01T22:48:43.172Z,13.20
2018-09-01T22:51:13.750Z,13.20
2018-09-01T22:53:44.700Z,13.20
2018-09-01T22:56:19.823Z,13.30
2018-09-01T22:58:50.766Z,13.30
2018-09-01T23:01:23.561Z,13.30
2018-09-01T23:03:57.151Z,13.30
2018-09-01T23:06:27.056Z,13.20
2018-09-01T23:08:56.765Z,13.20
2018-09-01T23:11:25.802Z,13.20
2018-09-01T23:13:59.259Z,13.10
2018-09-01T23:16:29.206Z,13.00
2018-09-01T23:19:06.212Z,13.00
2018-09-01T23:21:53.270Z,12.90
2018-09-01T23:24:22.739Z,13.00
2018-09-01T23:26:56.391Z,12.70
2018-09-01T23:29:27.370Z,12.50
2018-09-01T23:31:58.246Z,12.40
2018-09-01T23:34:28.362Z,12.30
2018-09-01T23:36:58.899Z,12.20
2018-09-01T23:39:33.816Z,12.10
2018-09-01T23:42:15.214Z,12.10
2018-09-01T23:46:13.874Z,12.00
2018-09-01T23:48:42.865Z,12.00
2018-09-01T23:51:13.215Z,12.00
2018-09-01T23:53:42.515Z,12.10
2018-09-01T23:56:12.120Z,12.10
2018-09-01T23:58:42.094Z,12.10
